PWSweather.com
Personal Weather Stations
Station Observations
LENIOP
Colle Di Val D ElsaIT 53034

Colle Di Val D ElsaIT 53034

Lat: 43.26, Lon: 11.0006

Elevation: 244

Station Type: PCE-FWS 20

http://iz5ilj.altervista.org

Latest ConditionsUpdated 6:15:03 PM GMT+01:01 Friday, Feb 22, 2019
Currently Today's Max Today's Min Today's Average
Temperature 53.4°F11.9°C 62.6°F17.0°C 43.9°F6.6°C 53.4°F11.9°C
Dew Point 43.9°F6.6°C 46.5°F8.1°C 39.7°F4.3°C 42.4°F5.8°C
Winds 1.5 mph NNW2.4 kmh NNW 9.4 mph -15.1 kmh - - 3.8 mph 6.1 kmh
Wind Gusts 3.1 mph5.0 kmh 10.7 mph17.2 kmh - -
Humidity 70% 96% 47% 68%
Pressure 30.38 in1028.8 mb 30.50 in1032.8 mb 30.34 in1027.4 mb -
Hour Temp Dew Point Humidity Winds Wind Gusts Pressure Precip Precip Rate Daily Precip Total
06:15 PM 53.4°F11.9°C 43.9°F6.6°C 70% 1.5 mph NNW2.4 kmh NNW 3.1 mph5.0 kmh 30.38 in1028.8 mb 0.00 in0.0 mm 0.00 in0.0 mm 0.00 in0.0 mm
06:11 PM 53.6°F12.0°C 44.0°F6.7°C 70% 2.7 mph NNW4.3 kmh NNW 3.1 mph5.0 kmh 30.37 in1028.4 mb 0.00 in0.0 mm 0.00 in0.0 mm 0.00 in0.0 mm
06:07 PM 54.5°F12.5°C 44.2°F6.8°C 68% 3.1 mph N5.0 kmh N 3.1 mph5.0 kmh 30.37 in1028.4 mb 0.00 in0.0 mm 0.00 in0.0 mm 0.00 in0.0 mm
06:02 PM 54.5°F12.5°C 44.2°F6.8°C 68% 3.6 mph NW5.8 kmh NW 4.5 mph7.2 kmh 30.37 in1028.4 mb 0.00 in0.0 mm 0.00 in0.0 mm 0.00 in0.0 mm
05:57 PM 55.0°F12.8°C 43.9°F6.6°C 66% 4.0 mph WNW6.4 kmh WNW 4.5 mph7.2 kmh 30.37 in1028.4 mb 0.00 in0.0 mm 0.00 in0.0 mm 0.00 in0.0 mm
05:52 PM 55.2°F12.9°C 43.7°F6.5°C 65% 4.5 mph W7.2 kmh W 4.5 mph7.2 kmh 30.37 in1028.4 mb 0.00 in0.0 mm 0.00 in0.0 mm 0.00 in0.0 mm
05:47 PM 55.9°F13.3°C 43.9°F6.6°C 64% 4.8 mph NW7.7 kmh NW 5.4 mph8.7 kmh 30.37 in1028.4 mb 0.00 in0.0 mm 0.00 in0.0 mm 0.00 in0.0 mm
05:42 PM 56.7°F13.7°C 44.2°F6.8°C 63% 5.6 mph NW9.0 kmh NW 6.9 mph11.1 kmh 30.36 in1028.1 mb 0.00 in0.0 mm 0.00 in0.0 mm 0.00 in0.0 mm
05:37 PM 57.2°F14.0°C 44.3°F6.8°C 62% 6.1 mph NW9.8 kmh NW 6.9 mph11.1 kmh 30.36 in1028.1 mb 0.00 in0.0 mm 0.00 in0.0 mm 0.00 in0.0 mm
05:32 PM 57.6°F14.2°C 44.2°F6.8°C 61% 6.3 mph WNW10.1 kmh WNW 6.9 mph11.1 kmh 30.36 in1028.1 mb 0.00 in0.0 mm 0.00 in0.0 mm 0.00 in0.0 mm
05:27 PM 58.1°F14.5°C 44.7°F7.1°C 61% 5.9 mph W9.5 kmh W 6.0 mph9.7 kmh 30.36 in1028.1 mb 0.00 in0.0 mm 0.00 in0.0 mm 0.00 in0.0 mm
05:22 PM 58.3°F14.6°C 44.4°F6.9°C 60% 7.0 mph WNW11.3 kmh WNW 9.3 mph15.0 kmh 30.35 in1027.8 mb 0.00 in0.0 mm 0.00 in0.0 mm 0.00 in0.0 mm
05:15 PM 58.6°F14.8°C 43.5°F6.4°C 57% 8.4 mph NW13.5 kmh NW 9.2 mph14.8 kmh 30.35 in1027.8 mb 0.00 in0.0 mm 0.00 in0.0 mm 0.00 in0.0 mm
05:11 PM 59.0°F15.0°C 43.3°F6.3°C 56% 8.1 mph N13.0 kmh N 9.2 mph14.8 kmh 30.35 in1027.8 mb 0.00 in0.0 mm 0.00 in0.0 mm 0.00 in0.0 mm
05:06 PM 59.4°F15.2°C 43.2°F6.2°C 55% 8.1 mph NNW13.0 kmh NNW 9.2 mph14.8 kmh 30.35 in1027.8 mb 0.00 in0.0 mm 0.00 in0.0 mm 0.00 in0.0 mm
05:01 PM 59.7°F15.4°C 43.5°F6.4°C 55% 6.9 mph NW11.1 kmh NW 8.3 mph13.4 kmh 30.35 in1027.8 mb 0.00 in0.0 mm 0.00 in0.0 mm 0.00 in0.0 mm
04:56 PM 60.1°F15.6°C 43.4°F6.3°C 54% 6.9 mph NW11.1 kmh NW 8.3 mph13.4 kmh 30.35 in1027.8 mb 0.00 in0.0 mm 0.00 in0.0 mm 0.00 in0.0 mm
04:51 PM 60.3°F15.7°C 42.6°F5.9°C 52% 6.4 mph N10.3 kmh N 6.9 mph11.1 kmh 30.35 in1027.8 mb 0.00 in0.0 mm 0.00 in0.0 mm 0.00 in0.0 mm
04:46 PM 60.4°F15.8°C 42.7°F5.9°C 52% 7.7 mph N12.4 kmh N 9.2 mph14.8 kmh 30.35 in1027.8 mb 0.00 in0.0 mm 0.00 in0.0 mm 0.00 in0.0 mm
04:41 PM 60.8°F16.0°C 42.5°F5.8°C 51% 7.2 mph N11.6 kmh N 9.2 mph14.8 kmh 30.35 in1027.8 mb 0.00 in0.0 mm 0.00 in0.0 mm 0.00 in0.0 mm
04:36 PM 61.2°F16.2°C 42.9°F6.1°C 51% 7.2 mph NNW11.6 kmh NNW 9.2 mph14.8 kmh 30.35 in1027.8 mb 0.00 in0.0 mm 0.00 in0.0 mm 0.00 in0.0 mm
04:31 PM 61.0°F16.1°C 42.2°F5.7°C 50% 6.4 mph NNW10.3 kmh NNW 6.9 mph11.1 kmh 30.35 in1027.8 mb 0.00 in0.0 mm 0.00 in0.0 mm 0.00 in0.0 mm
04:26 PM 61.5°F16.4°C 42.7°F5.9°C 50% 7.2 mph NNW11.6 kmh NNW 7.6 mph12.2 kmh 30.34 in1027.4 mb 0.00 in0.0 mm 0.00 in0.0 mm 0.00 in0.0 mm
04:21 PM 61.7°F16.5°C 43.4°F6.3°C 51% 6.9 mph NNW11.1 kmh NNW 7.6 mph12.2 kmh 30.35 in1027.8 mb 0.00 in0.0 mm 0.00 in0.0 mm 0.00 in0.0 mm
04:16 PM 61.5°F16.4°C 42.7°F5.9°C 50% 6.6 mph NNW10.6 kmh NNW 7.6 mph12.2 kmh 30.34 in1027.4 mb 0.00 in0.0 mm 0.00 in0.0 mm 0.00 in0.0 mm
04:11 PM 61.9°F16.6°C 43.0°F6.1°C 50% 6.0 mph NNW9.7 kmh NNW 6.0 mph9.7 kmh 30.34 in1027.4 mb 0.00 in0.0 mm 0.00 in0.0 mm 0.00 in0.0 mm
04:06 PM 62.4°F16.9°C 42.5°F5.8°C 48% 5.5 mph N8.9 kmh N 6.0 mph9.7 kmh 30.34 in1027.4 mb 0.00 in0.0 mm 0.00 in0.0 mm 0.00 in0.0 mm
04:01 PM 62.4°F16.9°C 42.5°F5.8°C 48% 5.3 mph N8.5 kmh N 6.0 mph9.7 kmh 30.34 in1027.4 mb 0.00 in0.0 mm 0.00 in0.0 mm 0.00 in0.0 mm
03:56 PM 62.4°F16.9°C 42.5°F5.8°C 48% 5.6 mph N9.0 kmh N 6.9 mph11.1 kmh 30.34 in1027.4 mb 0.00 in0.0 mm 0.00 in0.0 mm 0.00 in0.0 mm
03:51 PM 62.4°F16.9°C 42.5°F5.8°C 48% 6.6 mph N10.6 kmh N 7.6 mph12.2 kmh 30.34 in1027.4 mb 0.00 in0.0 mm 0.00 in0.0 mm 0.00 in0.0 mm
03:46 PM 62.4°F16.9°C 42.5°F5.8°C 48% 6.9 mph N11.1 kmh N 7.6 mph12.2 kmh 30.34 in1027.4 mb 0.00 in0.0 mm 0.00 in0.0 mm 0.00 in0.0 mm
03:41 PM 62.4°F16.9°C 42.5°F5.8°C 48% 6.9 mph N11.1 kmh N 7.6 mph12.2 kmh 30.34 in1027.4 mb 0.00 in0.0 mm 0.00 in0.0 mm 0.00 in0.0 mm
03:36 PM 62.2°F16.8°C 42.3°F5.7°C 48% 6.6 mph N10.6 kmh N 6.9 mph11.1 kmh 30.34 in1027.4 mb 0.00 in0.0 mm 0.00 in0.0 mm 0.00 in0.0 mm
03:31 PM 61.9°F16.6°C 42.5°F5.8°C 49% 6.6 mph N10.6 kmh N 6.9 mph11.1 kmh 30.34 in1027.4 mb 0.00 in0.0 mm 0.00 in0.0 mm 0.00 in0.0 mm
03:26 PM 62.2°F16.8°C 41.7°F5.4°C 47% 5.8 mph N9.3 kmh N 6.9 mph11.1 kmh 30.34 in1027.4 mb 0.00 in0.0 mm 0.00 in0.0 mm 0.00 in0.0 mm
03:21 PM 62.4°F16.9°C 42.5°F5.8°C 48% 5.8 mph NW9.3 kmh NW 6.9 mph11.1 kmh 30.34 in1027.4 mb 0.00 in0.0 mm 0.00 in0.0 mm 0.00 in0.0 mm
03:16 PM 62.2°F16.8°C 42.3°F5.7°C 48% 5.6 mph WNW9.0 kmh WNW 6.9 mph11.1 kmh 30.35 in1027.8 mb 0.00 in0.0 mm 0.00 in0.0 mm 0.00 in0.0 mm
03:11 PM 62.1°F16.7°C 42.1°F5.6°C 48% 6.4 mph NW10.3 kmh NW 6.9 mph11.1 kmh 30.34 in1027.4 mb 0.00 in0.0 mm 0.00 in0.0 mm 0.00 in0.0 mm
03:06 PM 62.1°F16.7°C 42.1°F5.6°C 48% 6.8 mph NNW10.9 kmh NNW 8.1 mph13.0 kmh 30.34 in1027.4 mb 0.00 in0.0 mm 0.00 in0.0 mm 0.00 in0.0 mm
03:00 PM 62.6°F17.0°C 42.7°F5.9°C 48% 6.7 mph NW10.8 kmh NW 8.3 mph13.4 kmh 30.35 in1027.8 mb 0.00 in0.0 mm 0.00 in0.0 mm 0.00 in0.0 mm
02:45 PM 62.2°F16.8°C 42.3°F5.7°C 48% 6.4 mph NW10.3 kmh NW 8.3 mph13.4 kmh 30.34 in1027.4 mb 0.00 in0.0 mm 0.00 in0.0 mm 0.00 in0.0 mm
02:30 PM 61.5°F16.4°C 42.7°F5.9°C 50% 6.7 mph N10.8 kmh N 9.2 mph14.8 kmh 30.34 in1027.4 mb 0.00 in0.0 mm 0.00 in0.0 mm 0.00 in0.0 mm
02:15 PM 60.4°F15.8°C 42.2°F5.7°C 51% 7.8 mph NW12.6 kmh NW 10.7 mph17.2 kmh 30.35 in1027.8 mb 0.00 in0.0 mm 0.00 in0.0 mm 0.00 in0.0 mm
02:02 PM 59.9°F15.5°C 42.2°F5.7°C 52% 6.9 mph N11.1 kmh N 9.2 mph14.8 kmh 30.35 in1027.8 mb 0.00 in0.0 mm 0.00 in0.0 mm 0.00 in0.0 mm
01:57 PM 59.9°F15.5°C 42.7°F5.9°C 53% 7.9 mph N12.7 kmh N 9.2 mph14.8 kmh 30.35 in1027.8 mb 0.00 in0.0 mm 0.00 in0.0 mm 0.00 in0.0 mm
01:52 PM 59.7°F15.4°C 42.6°F5.9°C 53% 7.2 mph N11.6 kmh N 7.6 mph12.2 kmh 30.35 in1027.8 mb 0.00 in0.0 mm 0.00 in0.0 mm 0.00 in0.0 mm
01:47 PM 59.7°F15.4°C 42.6°F5.9°C 53% 6.6 mph N10.6 kmh N 6.9 mph11.1 kmh 30.35 in1027.8 mb 0.00 in0.0 mm 0.00 in0.0 mm 0.00 in0.0 mm
01:42 PM 60.1°F15.6°C 42.4°F5.8°C 52% 6.9 mph N11.1 kmh N 7.6 mph12.2 kmh 30.35 in1027.8 mb 0.00 in0.0 mm 0.00 in0.0 mm 0.00 in0.0 mm
01:37 PM 60.3°F15.7°C 42.0°F5.6°C 51% 6.6 mph N10.6 kmh N 7.6 mph12.2 kmh 30.35 in1027.8 mb 0.00 in0.0 mm 0.00 in0.0 mm 0.00 in0.0 mm
01:32 PM 60.3°F15.7°C 42.6°F5.9°C 52% 6.3 mph N10.1 kmh N 7.6 mph12.2 kmh 30.35 in1027.8 mb 0.00 in0.0 mm 0.00 in0.0 mm 0.00 in0.0 mm
01:27 PM 60.1°F15.6°C 42.9°F6.1°C 53% 7.4 mph NW11.9 kmh NW 10.7 mph17.2 kmh 30.36 in1028.1 mb 0.00 in0.0 mm 0.00 in0.0 mm 0.00 in0.0 mm
01:22 PM 59.5°F15.3°C 42.4°F5.8°C 53% 8.1 mph NW13.0 kmh NW 10.7 mph17.2 kmh 30.35 in1027.8 mb 0.00 in0.0 mm 0.00 in0.0 mm 0.00 in0.0 mm
01:17 PM 59.5°F15.3°C 42.4°F5.8°C 53% 9.1 mph NNW14.6 kmh NNW 10.7 mph17.2 kmh 30.35 in1027.8 mb 0.00 in0.0 mm 0.00 in0.0 mm 0.00 in0.0 mm
01:12 PM 59.7°F15.4°C 42.6°F5.9°C 53% 8.3 mph N13.4 kmh N 8.3 mph13.4 kmh 30.36 in1028.1 mb 0.00 in0.0 mm 0.00 in0.0 mm 0.00 in0.0 mm
01:07 PM 59.5°F15.3°C 42.4°F5.8°C 53% 6.8 mph N10.9 kmh N 8.3 mph13.4 kmh 30.36 in1028.1 mb 0.00 in0.0 mm 0.00 in0.0 mm 0.00 in0.0 mm
01:02 PM 59.9°F15.5°C 42.2°F5.7°C 52% 5.8 mph NW9.3 kmh NW 8.3 mph13.4 kmh 30.37 in1028.4 mb 0.00 in0.0 mm 0.00 in0.0 mm 0.00 in0.0 mm
12:57 PM 60.3°F15.7°C 41.5°F5.3°C 50% 4.1 mph WNW6.6 kmh WNW 5.4 mph8.7 kmh 30.37 in1028.4 mb 0.00 in0.0 mm 0.00 in0.0 mm 0.00 in0.0 mm
12:52 PM 60.4°F15.8°C 41.2°F5.1°C 49% 4.8 mph NW7.7 kmh NW 6.0 mph9.7 kmh 30.36 in1028.1 mb 0.00 in0.0 mm 0.00 in0.0 mm 0.00 in0.0 mm
12:47 PM 60.3°F15.7°C 42.0°F5.6°C 51% 4.8 mph NW7.7 kmh NW 6.0 mph9.7 kmh 30.37 in1028.4 mb 0.00 in0.0 mm 0.00 in0.0 mm 0.00 in0.0 mm
12:42 PM 59.7°F15.4°C 42.1°F5.6°C 52% 5.8 mph NW9.3 kmh NW 6.0 mph9.7 kmh 30.37 in1028.4 mb 0.00 in0.0 mm 0.00 in0.0 mm 0.00 in0.0 mm
12:37 PM 60.1°F15.6°C 42.4°F5.8°C 52% 7.4 mph NW11.9 kmh NW 10.7 mph17.2 kmh 30.37 in1028.4 mb 0.00 in0.0 mm 0.00 in0.0 mm 0.00 in0.0 mm
12:32 PM 59.5°F15.3°C 42.9°F6.1°C 54% 7.9 mph NNW12.7 kmh NNW 10.7 mph17.2 kmh 30.37 in1028.4 mb 0.00 in0.0 mm 0.00 in0.0 mm 0.00 in0.0 mm
12:27 PM 58.3°F14.6°C 42.6°F5.9°C 56% 8.9 mph N14.3 kmh N 10.7 mph17.2 kmh 30.37 in1028.4 mb 0.00 in0.0 mm 0.00 in0.0 mm 0.00 in0.0 mm
12:22 PM 58.1°F14.5°C 42.5°F5.8°C 56% 8.9 mph N14.3 kmh N 10.7 mph17.2 kmh 30.38 in1028.8 mb 0.00 in0.0 mm 0.00 in0.0 mm 0.00 in0.0 mm
12:17 PM 58.8°F14.9°C 42.2°F5.7°C 54% 9.4 mph N15.1 kmh N 10.7 mph17.2 kmh 30.38 in1028.8 mb 0.00 in0.0 mm 0.00 in0.0 mm 0.00 in0.0 mm
12:12 PM 58.6°F14.8°C 42.5°F5.8°C 55% 9.1 mph NNW14.6 kmh NNW 10.7 mph17.2 kmh 30.38 in1028.8 mb 0.00 in0.0 mm 0.00 in0.0 mm 0.00 in0.0 mm
12:07 PM 58.6°F14.8°C 42.5°F5.8°C 55% 8.1 mph NNW13.0 kmh NNW 8.3 mph13.4 kmh 30.38 in1028.8 mb 0.00 in0.0 mm 0.00 in0.0 mm 0.00 in0.0 mm
12:02 PM 58.6°F14.8°C 42.5°F5.8°C 55% 8.6 mph NNW13.8 kmh NNW 9.8 mph15.8 kmh 30.39 in1029.1 mb 0.00 in0.0 mm 0.00 in0.0 mm 0.00 in0.0 mm
11:57 AM 58.3°F14.6°C 42.6°F5.9°C 56% 7.6 mph NW12.2 kmh NW 9.8 mph15.8 kmh 30.39 in1029.1 mb 0.00 in0.0 mm 0.00 in0.0 mm 0.00 in0.0 mm
11:52 AM 59.5°F15.3°C 42.4°F5.8°C 53% 6.3 mph NNW10.1 kmh NNW 9.8 mph15.8 kmh 30.39 in1029.1 mb 0.00 in0.0 mm 0.00 in0.0 mm 0.00 in0.0 mm
11:47 AM 58.6°F14.8°C 42.5°F5.8°C 55% 6.1 mph NNW9.8 kmh NNW 9.2 mph14.8 kmh 30.39 in1029.1 mb 0.00 in0.0 mm 0.00 in0.0 mm 0.00 in0.0 mm
11:42 AM 58.8°F14.9°C 41.7°F5.4°C 53% 6.3 mph NW10.1 kmh NW 9.2 mph14.8 kmh 30.39 in1029.1 mb 0.00 in0.0 mm 0.00 in0.0 mm 0.00 in0.0 mm
11:37 AM 59.7°F15.4°C 42.1°F5.6°C 52% 7.4 mph NNW11.9 kmh NNW 9.2 mph14.8 kmh 30.39 in1029.1 mb 0.00 in0.0 mm 0.00 in0.0 mm 0.00 in0.0 mm
11:32 AM 59.5°F15.3°C 43.8°F6.6°C 56% 6.6 mph NNW10.6 kmh NNW 6.9 mph11.1 kmh 30.39 in1029.1 mb 0.00 in0.0 mm 0.00 in0.0 mm 0.00 in0.0 mm
11:27 AM 58.6°F14.8°C 42.0°F5.6°C 54% 6.1 mph NNE9.8 kmh NNE 6.9 mph11.1 kmh 30.39 in1029.1 mb 0.00 in0.0 mm 0.00 in0.0 mm 0.00 in0.0 mm
11:22 AM 59.0°F15.0°C 41.9°F5.5°C 53% 5.8 mph NNE9.3 kmh NNE 6.9 mph11.1 kmh 30.40 in1029.5 mb 0.00 in0.0 mm 0.00 in0.0 mm 0.00 in0.0 mm
11:17 AM 59.2°F15.1°C 42.5°F5.8°C 54% 4.0 mph NE6.4 kmh NE 6.0 mph9.7 kmh 30.40 in1029.5 mb 0.00 in0.0 mm 0.00 in0.0 mm 0.00 in0.0 mm
11:12 AM 58.8°F14.9°C 41.7°F5.4°C 53% 4.5 mph N7.2 kmh N 6.0 mph9.7 kmh 30.39 in1029.1 mb 0.00 in0.0 mm 0.00 in0.0 mm 0.00 in0.0 mm
11:07 AM 58.5°F14.7°C 41.9°F5.5°C 54% 4.0 mph NW6.4 kmh NW 6.0 mph9.7 kmh 30.39 in1029.1 mb 0.00 in0.0 mm 0.00 in0.0 mm 0.00 in0.0 mm
11:02 AM 58.3°F14.6°C 42.2°F5.7°C 55% 4.8 mph NNW7.7 kmh NNW 6.0 mph9.7 kmh 30.40 in1029.5 mb 0.00 in0.0 mm 0.00 in0.0 mm 0.00 in0.0 mm
10:57 AM 57.9°F14.4°C 43.2°F6.2°C 58% 4.0 mph NNW6.4 kmh NNW 4.5 mph7.2 kmh 30.40 in1029.5 mb 0.00 in0.0 mm 0.00 in0.0 mm 0.00 in0.0 mm
10:52 AM 55.9°F13.3°C 42.2°F5.7°C 60% 4.8 mph N7.7 kmh N 6.9 mph11.1 kmh 30.39 in1029.1 mb 0.00 in0.0 mm 0.00 in0.0 mm 0.00 in0.0 mm
10:47 AM 56.7°F13.7°C 41.1°F5.1°C 56% 5.9 mph N9.5 kmh N 6.9 mph11.1 kmh 30.40 in1029.5 mb 0.00 in0.0 mm 0.00 in0.0 mm 0.00 in0.0 mm
10:42 AM 58.1°F14.5°C 41.0°F5.0°C 53% 5.1 mph N8.2 kmh N 6.9 mph11.1 kmh 30.40 in1029.5 mb 0.00 in0.0 mm 0.00 in0.0 mm 0.00 in0.0 mm
10:37 AM 61.9°F16.6°C 43.0°F6.1°C 50% 3.6 mph N5.8 kmh N 6.9 mph11.1 kmh 30.41 in1029.8 mb 0.00 in0.0 mm 0.00 in0.0 mm 0.00 in0.0 mm
10:32 AM 60.6°F15.9°C 42.4°F5.8°C 51% 1.8 mph NNE2.9 kmh NNE 2.2 mph3.5 kmh 30.40 in1029.5 mb 0.00 in0.0 mm 0.00 in0.0 mm 0.00 in0.0 mm
10:27 AM 58.8°F14.9°C 42.2°F5.7°C 54% 1.8 mph N2.9 kmh N 2.2 mph3.5 kmh 30.40 in1029.5 mb 0.00 in0.0 mm 0.00 in0.0 mm 0.00 in0.0 mm
10:22 AM 56.5°F13.6°C 41.9°F5.5°C 58% 2.8 mph NNW4.5 kmh NNW 5.4 mph8.7 kmh 30.40 in1029.5 mb 0.00 in0.0 mm 0.00 in0.0 mm 0.00 in0.0 mm
10:17 AM 56.7°F13.7°C 40.7°F4.8°C 55% 2.8 mph NW4.5 kmh NW 5.4 mph8.7 kmh 30.41 in1029.8 mb 0.00 in0.0 mm 0.00 in0.0 mm 0.00 in0.0 mm
10:12 AM 57.6°F14.2°C 41.0°F5.0°C 54% 2.8 mph W4.5 kmh W 5.4 mph8.7 kmh 30.41 in1029.8 mb 0.00 in0.0 mm 0.00 in0.0 mm 0.00 in0.0 mm
10:07 AM 56.7°F13.7°C 39.7°F4.3°C 53% 2.1 mph WNW3.4 kmh WNW 3.1 mph5.0 kmh 30.41 in1029.8 mb 0.00 in0.0 mm 0.00 in0.0 mm 0.00 in0.0 mm
10:02 AM 56.7°F13.7°C 39.7°F4.3°C 53% 2.8 mph N4.5 kmh N 3.8 mph6.1 kmh 30.41 in1029.8 mb 0.00 in0.0 mm 0.00 in0.0 mm 0.00 in0.0 mm
09:57 AM 59.0°F15.0°C 40.4°F4.7°C 50% 2.8 mph N4.5 kmh N 3.8 mph6.1 kmh 30.41 in1029.8 mb 0.00 in0.0 mm 0.00 in0.0 mm 0.00 in0.0 mm
09:52 AM 61.5°F16.4°C 42.2°F5.7°C 49% 2.3 mph NW3.7 kmh NW 3.8 mph6.1 kmh 30.41 in1029.8 mb 0.00 in0.0 mm 0.00 in0.0 mm 0.00 in0.0 mm
09:47 AM 60.6°F15.9°C 41.9°F5.5°C 50% 1.8 mph NW2.9 kmh NW 2.2 mph3.5 kmh 30.41 in1029.8 mb 0.00 in0.0 mm 0.00 in0.0 mm 0.00 in0.0 mm
09:42 AM 60.3°F15.7°C 40.5°F4.7°C 48% 2.0 mph N3.2 kmh N 2.2 mph3.5 kmh 30.41 in1029.8 mb 0.00 in0.0 mm 0.00 in0.0 mm 0.00 in0.0 mm
09:37 AM 61.2°F16.2°C 41.8°F5.4°C 49% 1.5 mph ENE2.4 kmh ENE 2.2 mph3.5 kmh 30.41 in1029.8 mb 0.00 in0.0 mm 0.00 in0.0 mm 0.00 in0.0 mm
09:32 AM 61.5°F16.4°C 42.7°F5.9°C 50% 1.3 mph E2.1 kmh E 2.2 mph3.5 kmh 30.41 in1029.8 mb 0.00 in0.0 mm 0.00 in0.0 mm 0.00 in0.0 mm
09:27 AM 60.8°F16.0°C 43.6°F6.4°C 53% 0.7 mph NNE1.1 kmh NNE 1.6 mph2.6 kmh 30.42 in1030.1 mb 0.00 in0.0 mm 0.00 in0.0 mm 0.00 in0.0 mm
09:22 AM 59.5°F15.3°C 42.4°F5.8°C 53% 1.0 mph NE1.6 kmh NE 1.6 mph2.6 kmh 30.42 in1030.1 mb 0.00 in0.0 mm 0.00 in0.0 mm 0.00 in0.0 mm
09:17 AM 57.7°F14.3°C 42.1°F5.6°C 56% 1.0 mph SSW1.6 kmh SSW 1.6 mph2.6 kmh 30.41 in1029.8 mb 0.00 in0.0 mm 0.00 in0.0 mm 0.00 in0.0 mm
09:12 AM 56.8°F13.8°C 41.8°F5.4°C 57% 2.0 mph SW3.2 kmh SW 3.8 mph6.1 kmh 30.42 in1030.1 mb 0.00 in0.0 mm 0.00 in0.0 mm 0.00 in0.0 mm
09:07 AM 55.6°F13.1°C 41.0°F5.0°C 58% 2.8 mph SW4.5 kmh SW 3.8 mph6.1 kmh 30.42 in1030.1 mb 0.00 in0.0 mm 0.00 in0.0 mm 0.00 in0.0 mm
09:02 AM 55.2°F12.9°C 40.7°F4.8°C 58% 3.4 mph SSW5.5 kmh SSW 3.8 mph6.1 kmh 30.42 in1030.1 mb 0.00 in0.0 mm 0.00 in0.0 mm 0.00 in0.0 mm
08:57 AM 55.2°F12.9°C 40.2°F4.6°C 57% 2.3 mph SSW3.7 kmh SSW 3.1 mph5.0 kmh 30.42 in1030.1 mb 0.00 in0.0 mm 0.00 in0.0 mm 0.00 in0.0 mm
08:52 AM 56.3°F13.5°C 42.1°F5.6°C 59% 1.5 mph SSW2.4 kmh SSW 3.1 mph5.0 kmh 30.42 in1030.1 mb 0.00 in0.0 mm 0.00 in0.0 mm 0.00 in0.0 mm
08:47 AM 56.7°F13.7°C 43.4°F6.3°C 61% 1.0 mph WSW1.6 kmh WSW 1.6 mph2.6 kmh 30.43 in1030.5 mb 0.00 in0.0 mm 0.00 in0.0 mm 0.00 in0.0 mm
08:42 AM 56.1°F13.4°C 44.1°F6.7°C 64% 1.3 mph WSW2.1 kmh WSW 1.6 mph2.6 kmh 30.43 in1030.5 mb 0.00 in0.0 mm 0.00 in0.0 mm 0.00 in0.0 mm
08:37 AM 55.0°F12.8°C 43.9°F6.6°C 66% 1.6 mph SW2.6 kmh SW 1.6 mph2.6 kmh 30.42 in1030.1 mb 0.00 in0.0 mm 0.00 in0.0 mm 0.00 in0.0 mm
08:32 AM 53.2°F11.8°C 42.6°F5.9°C 67% 2.3 mph SW3.7 kmh SW 3.8 mph6.1 kmh 30.43 in1030.5 mb 0.00 in0.0 mm 0.00 in0.0 mm 0.00 in0.0 mm
08:27 AM 52.5°F11.4°C 42.6°F5.9°C 69% 2.8 mph SW4.5 kmh SW 3.8 mph6.1 kmh 30.43 in1030.5 mb 0.00 in0.0 mm 0.00 in0.0 mm 0.00 in0.0 mm
08:22 AM 52.2°F11.2°C 42.3°F5.7°C 69% 3.1 mph SW5.0 kmh SW 3.8 mph6.1 kmh 30.42 in1030.1 mb 0.00 in0.0 mm 0.00 in0.0 mm 0.00 in0.0 mm
08:17 AM 52.2°F11.2°C 41.9°F5.5°C 68% 1.8 mph SSW2.9 kmh SSW 3.1 mph5.0 kmh 30.42 in1030.1 mb 0.00 in0.0 mm 0.00 in0.0 mm 0.00 in0.0 mm
08:12 AM 52.7°F11.5°C 43.2°F6.2°C 70% 0.7 mph S1.1 kmh S 2.2 mph3.5 kmh 30.43 in1030.5 mb 0.00 in0.0 mm 0.00 in0.0 mm 0.00 in0.0 mm
08:07 AM 52.2°F11.2°C 46.5°F8.1°C 81% Calm Calm -- 30.42 in1030.1 mb 0.00 in0.0 mm 0.00 in0.0 mm 0.00 in0.0 mm
08:02 AM 52.2°F11.2°C 46.5°F8.1°C 81% Calm Calm -- 30.43 in1030.5 mb 0.00 in0.0 mm 0.00 in0.0 mm 0.00 in0.0 mm
07:57 AM 50.9°F10.5°C 45.6°F7.6°C 82% 0.2 mph WSW0.3 kmh WSW 0.7 mph1.1 kmh 30.43 in1030.5 mb 0.00 in0.0 mm 0.00 in0.0 mm 0.00 in0.0 mm
07:52 AM 49.6°F9.8°C 44.7°F7.1°C 83% 0.2 mph WSW0.3 kmh WSW 0.7 mph1.1 kmh 30.43 in1030.5 mb 0.00 in0.0 mm 0.00 in0.0 mm 0.00 in0.0 mm
07:47 AM 48.4°F9.1°C 44.4°F6.9°C 86% 0.2 mph WSW0.3 kmh WSW 0.7 mph1.1 kmh 30.42 in1030.1 mb 0.00 in0.0 mm 0.00 in0.0 mm 0.00 in0.0 mm
07:42 AM 46.8°F8.2°C 43.1°F6.2°C 87% 0.2 mph WSW0.3 kmh WSW 0.7 mph1.1 kmh 30.43 in1030.5 mb 0.00 in0.0 mm 0.00 in0.0 mm 0.00 in0.0 mm
07:37 AM 45.5°F7.5°C 41.9°F5.5°C 87% 0.2 mph WSW0.3 kmh WSW 0.7 mph1.1 kmh 30.43 in1030.5 mb 0.00 in0.0 mm 0.00 in0.0 mm 0.00 in0.0 mm
07:32 AM 45.3°F7.4°C 41.4°F5.2°C 86% 0.4 mph SW0.6 kmh SW 0.7 mph1.1 kmh 30.43 in1030.5 mb 0.00 in0.0 mm 0.00 in0.0 mm 0.00 in0.0 mm
07:27 AM 44.8°F7.1°C 40.5°F4.7°C 85% 0.7 mph SW1.1 kmh SW 1.6 mph2.6 kmh 30.42 in1030.1 mb 0.00 in0.0 mm 0.00 in0.0 mm 0.00 in0.0 mm
07:22 AM 45.0°F7.2°C 40.4°F4.7°C 84% 0.7 mph SW1.1 kmh SW 1.6 mph2.6 kmh 30.42 in1030.1 mb 0.00 in0.0 mm 0.00 in0.0 mm 0.00 in0.0 mm
07:17 AM 45.0°F7.2°C 40.4°F4.7°C 84% 0.5 mph SW0.8 kmh SW 1.6 mph2.6 kmh 30.42 in1030.1 mb 0.00 in0.0 mm 0.00 in0.0 mm 0.00 in0.0 mm
07:12 AM 45.1°F7.3°C 40.3°F4.6°C 83% Calm Calm -- 30.41 in1029.8 mb 0.00 in0.0 mm 0.00 in0.0 mm 0.00 in0.0 mm
07:07 AM 45.3°F7.4°C 40.5°F4.7°C 83% Calm Calm -- 30.41 in1029.8 mb 0.00 in0.0 mm 0.00 in0.0 mm 0.00 in0.0 mm
07:02 AM 45.7°F7.6°C 40.8°F4.9°C 83% 0.2 mph NW0.3 kmh NW 0.7 mph1.1 kmh 30.41 in1029.8 mb 0.00 in0.0 mm 0.00 in0.0 mm 0.00 in0.0 mm
06:57 AM 46.0°F7.8°C 41.2°F5.1°C 83% 0.7 mph NW1.1 kmh NW 1.6 mph2.6 kmh 30.41 in1029.8 mb 0.00 in0.0 mm 0.00 in0.0 mm 0.00 in0.0 mm
06:52 AM 46.0°F7.8°C 41.2°F5.1°C 83% 1.5 mph NW2.4 kmh NW 2.2 mph3.5 kmh 30.41 in1029.8 mb 0.00 in0.0 mm 0.00 in0.0 mm 0.00 in0.0 mm
06:47 AM 46.4°F8.0°C 41.5°F5.3°C 83% 2.3 mph NW3.7 kmh NW 3.1 mph5.0 kmh 30.42 in1030.1 mb 0.00 in0.0 mm 0.00 in0.0 mm 0.00 in0.0 mm
06:42 AM 46.6°F8.1°C 41.4°F5.2°C 82% 2.5 mph NW4.0 kmh NW 3.1 mph5.0 kmh 30.42 in1030.1 mb 0.00 in0.0 mm 0.00 in0.0 mm 0.00 in0.0 mm
06:37 AM 46.8°F8.2°C 41.6°F5.3°C 82% 2.5 mph NW4.0 kmh NW 3.1 mph5.0 kmh 30.43 in1030.5 mb 0.00 in0.0 mm 0.00 in0.0 mm 0.00 in0.0 mm
06:32 AM 47.1°F8.4°C 41.9°F5.5°C 82% 2.0 mph NW3.2 kmh NW 2.2 mph3.5 kmh 30.42 in1030.1 mb 0.00 in0.0 mm 0.00 in0.0 mm 0.00 in0.0 mm
06:27 AM 47.5°F8.6°C 42.6°F5.9°C 83% 1.8 mph NW2.9 kmh NW 2.2 mph3.5 kmh 30.42 in1030.1 mb 0.00 in0.0 mm 0.00 in0.0 mm 0.00 in0.0 mm
06:22 AM 47.5°F8.6°C 42.6°F5.9°C 83% 1.0 mph NW1.6 kmh NW 1.6 mph2.6 kmh 30.42 in1030.1 mb 0.00 in0.0 mm 0.00 in0.0 mm 0.00 in0.0 mm
06:17 AM 47.3°F8.5°C 42.4°F5.8°C 83% 0.5 mph NW0.8 kmh NW 1.6 mph2.6 kmh 30.42 in1030.1 mb 0.00 in0.0 mm 0.00 in0.0 mm 0.00 in0.0 mm
06:12 AM 46.9°F8.3°C 41.7°F5.4°C 82% Calm Calm -- 30.42 in1030.1 mb 0.00 in0.0 mm 0.00 in0.0 mm 0.00 in0.0 mm
06:07 AM 46.9°F8.3°C 41.7°F5.4°C 82% 0.5 mph NW0.8 kmh NW 1.6 mph2.6 kmh 30.42 in1030.1 mb 0.00 in0.0 mm 0.00 in0.0 mm 0.00 in0.0 mm
06:02 AM 46.9°F8.3°C 41.7°F5.4°C 82% 1.0 mph NW1.6 kmh NW 1.6 mph2.6 kmh 30.42 in1030.1 mb 0.00 in0.0 mm 0.00 in0.0 mm 0.00 in0.0 mm
05:57 AM 46.9°F8.3°C 41.4°F5.2°C 81% 1.6 mph NW2.6 kmh NW 1.6 mph2.6 kmh 30.42 in1030.1 mb 0.00 in0.0 mm 0.00 in0.0 mm 0.00 in0.0 mm
05:52 AM 47.1°F8.4°C 41.6°F5.3°C 81% 1.6 mph NW2.6 kmh NW 1.6 mph2.6 kmh 30.42 in1030.1 mb 0.00 in0.0 mm 0.00 in0.0 mm 0.00 in0.0 mm
05:47 AM 47.1°F8.4°C 41.6°F5.3°C 81% 2.1 mph N3.4 kmh N 3.1 mph5.0 kmh 30.43 in1030.5 mb 0.00 in0.0 mm 0.00 in0.0 mm 0.00 in0.0 mm
05:42 AM 47.3°F8.5°C 41.8°F5.4°C 81% 2.3 mph N3.7 kmh N 3.1 mph5.0 kmh 30.43 in1030.5 mb 0.00 in0.0 mm 0.00 in0.0 mm 0.00 in0.0 mm
05:37 AM 47.3°F8.5°C 41.8°F5.4°C 81% 2.8 mph N4.5 kmh N 3.1 mph5.0 kmh 30.43 in1030.5 mb 0.00 in0.0 mm 0.00 in0.0 mm 0.00 in0.0 mm
05:32 AM 47.3°F8.5°C 41.8°F5.4°C 81% 2.3 mph NNW3.7 kmh NNW 3.1 mph5.0 kmh 30.43 in1030.5 mb 0.00 in0.0 mm 0.00 in0.0 mm 0.00 in0.0 mm
05:27 AM 47.3°F8.5°C 41.4°F5.2°C 80% 2.1 mph N3.4 kmh N 3.1 mph5.0 kmh 30.43 in1030.5 mb 0.00 in0.0 mm 0.00 in0.0 mm 0.00 in0.0 mm
05:22 AM 47.3°F8.5°C 41.4°F5.2°C 80% 1.6 mph N2.6 kmh N 1.6 mph2.6 kmh 30.43 in1030.5 mb 0.00 in0.0 mm 0.00 in0.0 mm 0.00 in0.0 mm
05:17 AM 47.5°F8.6°C 41.6°F5.3°C 80% 1.6 mph N2.6 kmh N 1.6 mph2.6 kmh 30.43 in1030.5 mb 0.00 in0.0 mm 0.00 in0.0 mm 0.00 in0.0 mm
05:12 AM 47.5°F8.6°C 41.6°F5.3°C 80% 1.3 mph N2.1 kmh N 1.6 mph2.6 kmh 30.43 in1030.5 mb 0.00 in0.0 mm 0.00 in0.0 mm 0.00 in0.0 mm
05:07 AM 47.5°F8.6°C 41.3°F5.2°C 79% 1.5 mph N2.4 kmh N 2.2 mph3.5 kmh 30.43 in1030.5 mb 0.00 in0.0 mm 0.00 in0.0 mm 0.00 in0.0 mm
05:02 AM 47.7°F8.7°C 41.1°F5.1°C 78% 1.5 mph NNW2.4 kmh NNW 2.2 mph3.5 kmh 30.43 in1030.5 mb 0.00 in0.0 mm 0.00 in0.0 mm 0.00 in0.0 mm
04:57 AM 47.7°F8.7°C 41.1°F5.1°C 78% 1.8 mph NW2.9 kmh NW 2.2 mph3.5 kmh 30.43 in1030.5 mb 0.00 in0.0 mm 0.00 in0.0 mm 0.00 in0.0 mm
04:52 AM 47.8°F8.8°C 41.3°F5.2°C 78% 1.8 mph NW2.9 kmh NW 2.2 mph3.5 kmh 30.44 in1030.8 mb 0.00 in0.0 mm 0.00 in0.0 mm 0.00 in0.0 mm
04:47 AM 47.8°F8.8°C 41.3°F5.2°C 78% 2.3 mph NNW3.7 kmh NNW 3.1 mph5.0 kmh 30.43 in1030.5 mb 0.00 in0.0 mm 0.00 in0.0 mm 0.00 in0.0 mm
04:42 AM 47.8°F8.8°C 41.3°F5.2°C 78% 2.5 mph N4.0 kmh N 3.1 mph5.0 kmh 30.43 in1030.5 mb 0.00 in0.0 mm 0.00 in0.0 mm 0.00 in0.0 mm
04:37 AM 47.8°F8.8°C 41.3°F5.2°C 78% 3.6 mph NW5.8 kmh NW 5.4 mph8.7 kmh 30.43 in1030.5 mb 0.00 in0.0 mm 0.00 in0.0 mm 0.00 in0.0 mm
04:32 AM 47.8°F8.8°C 41.3°F5.2°C 78% 3.6 mph W5.8 kmh W 5.4 mph8.7 kmh 30.44 in1030.8 mb 0.00 in0.0 mm 0.00 in0.0 mm 0.00 in0.0 mm
04:27 AM 47.8°F8.8°C 41.3°F5.2°C 78% 3.6 mph W5.8 kmh W 5.4 mph8.7 kmh 30.43 in1030.5 mb 0.00 in0.0 mm 0.00 in0.0 mm 0.00 in0.0 mm
04:22 AM 47.8°F8.8°C 41.3°F5.2°C 78% 2.5 mph W4.0 kmh W 3.1 mph5.0 kmh 30.44 in1030.8 mb 0.00 in0.0 mm 0.00 in0.0 mm 0.00 in0.0 mm
04:17 AM 47.8°F8.8°C 41.6°F5.3°C 79% 2.2 mph NW3.5 kmh NW 2.2 mph3.5 kmh 30.44 in1030.8 mb 0.00 in0.0 mm 0.00 in0.0 mm 0.00 in0.0 mm
04:12 AM 47.8°F8.8°C 41.6°F5.3°C 79% 2.2 mph NW3.5 kmh NW 2.2 mph3.5 kmh 30.44 in1030.8 mb 0.00 in0.0 mm 0.00 in0.0 mm 0.00 in0.0 mm
04:07 AM 47.7°F8.7°C 41.5°F5.3°C 79% 2.8 mph WNW4.5 kmh WNW 3.8 mph6.1 kmh 30.45 in1031.2 mb 0.00 in0.0 mm 0.00 in0.0 mm 0.00 in0.0 mm
04:02 AM 47.7°F8.7°C 41.5°F5.3°C 79% 3.5 mph W5.6 kmh W 4.5 mph7.2 kmh 30.44 in1030.8 mb 0.00 in0.0 mm 0.00 in0.0 mm 0.00 in0.0 mm
03:57 AM 47.7°F8.7°C 41.5°F5.3°C 79% 4.5 mph W7.2 kmh W 5.4 mph8.7 kmh 30.44 in1030.8 mb 0.00 in0.0 mm 0.00 in0.0 mm 0.00 in0.0 mm
03:52 AM 47.7°F8.7°C 41.5°F5.3°C 79% 4.5 mph W7.2 kmh W 5.4 mph8.7 kmh 30.44 in1030.8 mb 0.00 in0.0 mm 0.00 in0.0 mm 0.00 in0.0 mm
03:47 AM 47.7°F8.7°C 41.5°F5.3°C 79% 4.1 mph W6.6 kmh W 5.4 mph8.7 kmh 30.45 in1031.2 mb 0.00 in0.0 mm 0.00 in0.0 mm 0.00 in0.0 mm
03:42 AM 47.8°F8.8°C 42.0°F5.6°C 80% 3.8 mph WNW6.1 kmh WNW 4.5 mph7.2 kmh 30.45 in1031.2 mb 0.00 in0.0 mm 0.00 in0.0 mm 0.00 in0.0 mm
03:37 AM 47.7°F8.7°C 41.8°F5.4°C 80% 3.6 mph NW5.8 kmh NW 4.5 mph7.2 kmh 30.45 in1031.2 mb 0.00 in0.0 mm 0.00 in0.0 mm 0.00 in0.0 mm
03:32 AM 47.7°F8.7°C 41.8°F5.4°C 80% 3.1 mph NW5.0 kmh NW 4.5 mph7.2 kmh 30.45 in1031.2 mb 0.00 in0.0 mm 0.00 in0.0 mm 0.00 in0.0 mm
03:27 AM 47.5°F8.6°C 42.3°F5.7°C 82% 2.3 mph NW3.7 kmh NW 3.1 mph5.0 kmh 30.45 in1031.2 mb 0.00 in0.0 mm 0.00 in0.0 mm 0.00 in0.0 mm
03:22 AM 47.5°F8.6°C 42.3°F5.7°C 82% 2.0 mph NW3.2 kmh NW 2.2 mph3.5 kmh 30.45 in1031.2 mb 0.00 in0.0 mm 0.00 in0.0 mm 0.00 in0.0 mm
03:17 AM 47.7°F8.7°C 41.8°F5.4°C 80% 2.2 mph NW3.5 kmh NW 2.2 mph3.5 kmh 30.45 in1031.2 mb 0.00 in0.0 mm 0.00 in0.0 mm 0.00 in0.0 mm
03:12 AM 47.7°F8.7°C 41.8°F5.4°C 80% 2.0 mph NW3.2 kmh NW 2.2 mph3.5 kmh 30.46 in1031.5 mb 0.00 in0.0 mm 0.00 in0.0 mm 0.00 in0.0 mm
03:07 AM 47.8°F8.8°C 42.3°F5.7°C 81% 2.3 mph NW3.7 kmh NW 3.1 mph5.0 kmh 30.46 in1031.5 mb 0.00 in0.0 mm 0.00 in0.0 mm 0.00 in0.0 mm
03:02 AM 47.8°F8.8°C 42.3°F5.7°C 81% 2.3 mph NW3.7 kmh NW 3.1 mph5.0 kmh 30.46 in1031.5 mb 0.00 in0.0 mm 0.00 in0.0 mm 0.00 in0.0 mm
02:57 AM 47.8°F8.8°C 42.3°F5.7°C 81% 2.8 mph WNW4.5 kmh WNW 3.1 mph5.0 kmh 30.47 in1031.8 mb 0.00 in0.0 mm 0.00 in0.0 mm 0.00 in0.0 mm
02:52 AM 47.8°F8.8°C 42.3°F5.7°C 81% 2.3 mph WNW3.7 kmh WNW 3.1 mph5.0 kmh 30.47 in1031.8 mb 0.00 in0.0 mm 0.00 in0.0 mm 0.00 in0.0 mm
02:47 AM 48.0°F8.9°C 42.5°F5.8°C 81% 3.4 mph W5.5 kmh W 5.4 mph8.7 kmh 30.47 in1031.8 mb 0.00 in0.0 mm 0.00 in0.0 mm 0.00 in0.0 mm
02:42 AM 48.0°F8.9°C 42.5°F5.8°C 81% 4.8 mph W7.7 kmh W 7.6 mph12.2 kmh 30.47 in1031.8 mb 0.00 in0.0 mm 0.00 in0.0 mm 0.00 in0.0 mm
02:37 AM 47.8°F8.8°C 42.6°F5.9°C 82% 5.1 mph W8.2 kmh W 7.6 mph12.2 kmh 30.47 in1031.8 mb 0.00 in0.0 mm 0.00 in0.0 mm 0.00 in0.0 mm
02:32 AM 47.7°F8.7°C 42.8°F6.0°C 83% 4.3 mph WNW6.9 kmh WNW 7.6 mph12.2 kmh 30.47 in1031.8 mb 0.00 in0.0 mm 0.00 in0.0 mm 0.00 in0.0 mm
02:27 AM 47.7°F8.7°C 42.8°F6.0°C 83% 2.8 mph NW4.5 kmh NW 3.1 mph5.0 kmh 30.47 in1031.8 mb 0.00 in0.0 mm 0.00 in0.0 mm 0.00 in0.0 mm
02:22 AM 47.7°F8.7°C 42.8°F6.0°C 83% 2.6 mph NW4.2 kmh NW 3.1 mph5.0 kmh 30.47 in1031.8 mb 0.00 in0.0 mm 0.00 in0.0 mm 0.00 in0.0 mm
02:17 AM 47.3°F8.5°C 42.7°F5.9°C 84% 2.6 mph W4.2 kmh W 3.1 mph5.0 kmh 30.48 in1032.2 mb 0.00 in0.0 mm 0.00 in0.0 mm 0.00 in0.0 mm
02:12 AM 47.3°F8.5°C 42.7°F5.9°C 84% 2.6 mph WSW4.2 kmh WSW 3.1 mph5.0 kmh 30.48 in1032.2 mb 0.00 in0.0 mm 0.00 in0.0 mm 0.00 in0.0 mm
02:07 AM 47.5°F8.6°C 42.9°F6.1°C 84% 3.1 mph W5.0 kmh W 3.1 mph5.0 kmh 30.48 in1032.2 mb 0.00 in0.0 mm 0.00 in0.0 mm 0.00 in0.0 mm
02:02 AM 47.5°F8.6°C 42.9°F6.1°C 84% 4.1 mph W6.6 kmh W 6.0 mph9.7 kmh 30.48 in1032.2 mb 0.00 in0.0 mm 0.00 in0.0 mm 0.00 in0.0 mm
01:57 AM 47.5°F8.6°C 42.9°F6.1°C 84% 5.6 mph W9.0 kmh W 7.6 mph12.2 kmh 30.48 in1032.2 mb 0.00 in0.0 mm 0.00 in0.0 mm 0.00 in0.0 mm
01:52 AM 47.3°F8.5°C 42.7°F5.9°C 84% 6.3 mph W10.1 kmh W 7.6 mph12.2 kmh 30.48 in1032.2 mb 0.00 in0.0 mm 0.00 in0.0 mm 0.00 in0.0 mm
01:47 AM 47.3°F8.5°C 43.0°F6.1°C 85% 6.3 mph W10.1 kmh W 7.6 mph12.2 kmh 30.48 in1032.2 mb 0.00 in0.0 mm 0.00 in0.0 mm 0.00 in0.0 mm
01:42 AM 47.1°F8.4°C 43.1°F6.2°C 86% 5.8 mph WNW9.3 kmh WNW 6.0 mph9.7 kmh 30.48 in1032.2 mb 0.00 in0.0 mm 0.00 in0.0 mm 0.00 in0.0 mm
01:37 AM 46.8°F8.2°C 43.1°F6.2°C 87% 4.8 mph WNW7.7 kmh WNW 6.0 mph9.7 kmh 30.48 in1032.2 mb 0.00 in0.0 mm 0.00 in0.0 mm 0.00 in0.0 mm
01:32 AM 46.6°F8.1°C 42.9°F6.1°C 87% 3.5 mph W5.6 kmh W 6.0 mph9.7 kmh 30.49 in1032.5 mb 0.00 in0.0 mm 0.00 in0.0 mm 0.00 in0.0 mm
01:27 AM 46.6°F8.1°C 43.2°F6.2°C 88% 2.5 mph W4.0 kmh W 3.1 mph5.0 kmh 30.49 in1032.5 mb 0.00 in0.0 mm 0.00 in0.0 mm 0.00 in0.0 mm
01:22 AM 46.2°F7.9°C 43.2°F6.2°C 89% 2.5 mph WSW4.0 kmh WSW 3.1 mph5.0 kmh 30.49 in1032.5 mb 0.00 in0.0 mm 0.00 in0.0 mm 0.00 in0.0 mm
01:17 AM 45.7°F7.6°C 42.9°F6.1°C 90% 1.8 mph WSW2.9 kmh WSW 3.1 mph5.0 kmh 30.49 in1032.5 mb 0.00 in0.0 mm 0.00 in0.0 mm 0.00 in0.0 mm
01:12 AM 45.7°F7.6°C 42.9°F6.1°C 90% 2.2 mph WSW3.5 kmh WSW 4.5 mph7.2 kmh 30.49 in1032.5 mb 0.00 in0.0 mm 0.00 in0.0 mm 0.00 in0.0 mm
01:07 AM 45.7°F7.6°C 42.9°F6.1°C 90% 1.5 mph W2.4 kmh W 4.5 mph7.2 kmh 30.49 in1032.5 mb 0.00 in0.0 mm 0.00 in0.0 mm 0.00 in0.0 mm
01:02 AM 45.1°F7.3°C 42.4°F5.8°C 90% 2.0 mph WSW3.2 kmh WSW 4.5 mph7.2 kmh 30.49 in1032.5 mb 0.00 in0.0 mm 0.00 in0.0 mm 0.00 in0.0 mm
12:57 AM 45.1°F7.3°C 42.7°F5.9°C 91% 1.3 mph SE2.1 kmh SE 2.2 mph3.5 kmh 30.49 in1032.5 mb 0.00 in0.0 mm 0.00 in0.0 mm 0.00 in0.0 mm
12:52 AM 45.3°F7.4°C 43.1°F6.2°C 92% 2.0 mph S3.2 kmh S 2.2 mph3.5 kmh 30.50 in1032.8 mb 0.00 in0.0 mm 0.00 in0.0 mm 0.00 in0.0 mm
12:47 AM 45.5°F7.5°C 43.6°F6.4°C 93% 2.2 mph SSW3.5 kmh SSW 2.2 mph3.5 kmh 30.49 in1032.5 mb 0.00 in0.0 mm 0.00 in0.0 mm 0.00 in0.0 mm
12:42 AM 45.3°F7.4°C 43.4°F6.3°C 93% 2.5 mph SW4.0 kmh SW 3.1 mph5.0 kmh 30.49 in1032.5 mb 0.00 in0.0 mm 0.00 in0.0 mm 0.00 in0.0 mm
12:37 AM 44.8°F7.1°C 42.9°F6.1°C 93% 2.5 mph SW4.0 kmh SW 3.1 mph5.0 kmh 30.50 in1032.8 mb 0.00 in0.0 mm 0.00 in0.0 mm 0.00 in0.0 mm
12:32 AM 44.6°F7.0°C 42.7°F5.9°C 93% 2.5 mph SW4.0 kmh SW 3.1 mph5.0 kmh 30.50 in1032.8 mb 0.00 in0.0 mm 0.00 in0.0 mm 0.00 in0.0 mm
12:27 AM 44.1°F6.7°C 42.2°F5.7°C 93% 2.2 mph WSW3.5 kmh WSW 2.2 mph3.5 kmh 30.49 in1032.5 mb 0.00 in0.0 mm 0.00 in0.0 mm 0.00 in0.0 mm
12:22 AM 43.9°F6.6°C 42.5°F5.8°C 95% 2.2 mph WSW3.5 kmh WSW 2.2 mph3.5 kmh 30.50 in1032.8 mb 0.00 in0.0 mm 0.00 in0.0 mm 0.00 in0.0 mm
12:17 AM 44.1°F6.7°C 42.4°F5.8°C 94% 1.7 mph W2.7 kmh W 2.2 mph3.5 kmh 30.50 in1032.8 mb 0.00 in0.0 mm 0.00 in0.0 mm 0.00 in0.0 mm
12:12 AM 44.1°F6.7°C 42.4°F5.8°C 94% 1.2 mph WSW1.9 kmh WSW 2.2 mph3.5 kmh 30.50 in1032.8 mb 0.00 in0.0 mm 0.00 in0.0 mm 0.00 in0.0 mm
12:07 AM 43.9°F6.6°C 42.8°F6.0°C 96% 1.5 mph SW2.4 kmh SW 3.1 mph5.0 kmh 30.49 in1032.5 mb 0.00 in0.0 mm 0.00 in0.0 mm 0.00 in0.0 mm
12:02 AM 43.9°F6.6°C 42.8°F6.0°C 96% 2.3 mph SW3.7 kmh SW 3.1 mph5.0 kmh 30.49 in1032.5 mb 0.00 in0.0 mm 0.00 in0.0 mm 0.00 in0.0 mm